Current Weather

Shoreham

Shoreham, United Kingdom (EGKA)

Report from: Tuesday, July 16, 2024 3:20 PM BST
Current time: Tuesday, July 16, 2024 3:45 PM BST

Nearby weather – Weather history – Daily summaries
Weather forecast

Present weatherLight rain showers
Temperature19.0°C (66.2°F)
Dew point15.0°C (59.0°F)
Winds 12 kts (6.2 m/s, 13.8 mph) West (260°)
Visibility6.2 mi. (10 km)
Clouds Scattered clouds 1,600 ft. (488 m)
Scattered clouds 2,500 ft. (762 m)
Altimeter29.88 in.Hg (1012 mB)
Relative humidity78 %
Density altitude747 ft. (228 m)
Flight conditions Visual Meteorological Conditions
Raw dataEGKA 161420Z 26012KT 9999 -SHRA SCT016 SCT025 19/15 Q1012
An error has occurred. This application may no longer respond until reloaded. Reload 🗙